sensor_id;sensor_type;location;lat;lon;timestamp;P1;durP1;ratioP1;P2;durP2;ratioP2
25263;SDS011;13211;51.796;5.808;2023-04-24T00:05:57;23.42;;;16.08;;
25263;SDS011;13211;51.796;5.808;2023-04-24T00:08:25;23.83;;;16.50;;
25263;SDS011;13211;51.796;5.808;2023-04-24T00:10:55;26.02;;;16.95;;
25263;SDS011;13211;51.796;5.808;2023-04-24T00:13:23;24.85;;;14.88;;
25263;SDS011;13211;51.796;5.808;2023-04-24T00:15:51;23.25;;;15.68;;
25263;SDS011;13211;51.796;5.808;2023-04-24T00:18:19;24.17;;;15.13;;
25263;SDS011;13211;51.796;5.808;2023-04-24T00:20:50;23.95;;;15.32;;
25263;SDS011;13211;51.796;5.808;2023-04-24T00:23:17;23.63;;;15.98;;
25263;SDS011;13211;51.796;5.808;2023-04-24T00:25:45;23.80;;;15.65;;
25263;SDS011;13211;51.796;5.808;2023-04-24T00:28:20;23.60;;;15.07;;
25263;SDS011;13211;51.796;5.808;2023-04-24T00:30:48;23.35;;;16.52;;
25263;SDS011;13211;51.796;5.808;2023-04-24T00:33:17;26.50;;;17.40;;
25263;SDS011;13211;51.796;5.808;2023-04-24T00:35:45;23.13;;;16.83;;
25263;SDS011;13211;51.796;5.808;2023-04-24T00:38:15;22.42;;;16.02;;
25263;SDS011;13211;51.796;5.808;2023-04-24T00:40:44;25.50;;;16.80;;
25263;SDS011;13211;51.796;5.808;2023-04-24T00:43:14;27.23;;;15.77;;
25263;SDS011;13211;51.796;5.808;2023-04-24T00:45:44;22.00;;;15.25;;
25263;SDS011;13211;51.796;5.808;2023-04-24T00:48:14;20.50;;;15.75;;
25263;SDS011;13211;51.796;5.808;2023-04-24T00:50:44;19.83;;;13.70;;
25263;SDS011;13211;51.796;5.808;2023-04-24T00:53:19;22.02;;;13.40;;
25263;SDS011;13211;51.796;5.808;2023-04-24T00:55:48;28.10;;;13.88;;
25263;SDS011;13211;51.796;5.808;2023-04-24T00:58:17;23.77;;;14.38;;
25263;SDS011;13211;51.796;5.808;2023-04-24T01:00:45;22.08;;;14.15;;
25263;SDS011;13211;51.796;5.808;2023-04-24T01:03:15;21.70;;;14.63;;
25263;SDS011;13211;51.796;5.808;2023-04-24T01:05:45;25.35;;;16.65;;
25263;SDS011;13211;51.796;5.808;2023-04-24T01:08:17;24.85;;;16.10;;
25263;SDS011;13211;51.796;5.808;2023-04-24T01:10:45;25.45;;;16.40;;
25263;SDS011;13211;51.796;5.808;2023-04-24T01:13:20;25.08;;;16.73;;
25263;SDS011;13211;51.796;5.808;2023-04-24T01:15:49;29.30;;;16.08;;
25263;SDS011;13211;51.796;5.808;2023-04-24T01:18:18;25.88;;;15.88;;
25263;SDS011;13211;51.796;5.808;2023-04-24T01:20:50;25.70;;;17.08;;
25263;SDS011;13211;51.796;5.808;2023-04-24T01:23:20;27.70;;;17.10;;
25263;SDS011;13211;51.796;5.808;2023-04-24T01:25:50;30.00;;;18.13;;
25263;SDS011;13211;51.796;5.808;2023-04-24T01:28:19;25.73;;;17.13;;
25263;SDS011;13211;51.796;5.808;2023-04-24T01:30:48;27.02;;;16.60;;
25263;SDS011;13211;51.796;5.808;2023-04-24T01:33:17;27.58;;;17.50;;
25263;SDS011;13211;51.796;5.808;2023-04-24T01:35:49;34.13;;;18.88;;
25263;SDS011;13211;51.796;5.808;2023-04-24T01:38:17;44.88;;;19.05;;
25263;SDS011;13211;51.796;5.808;2023-04-24T01:40:46;38.10;;;19.65;;
25263;SDS011;13211;51.796;5.808;2023-04-24T01:43:17;39.95;;;21.38;;
25263;SDS011;13211;51.796;5.808;2023-04-24T01:45:45;38.95;;;21.63;;
25263;SDS011;13211;51.796;5.808;2023-04-24T01:48:15;42.22;;;21.88;;
25263;SDS011;13211;51.796;5.808;2023-04-24T01:50:44;43.20;;;23.45;;
25263;SDS011;13211;51.796;5.808;2023-04-24T01:53:17;39.20;;;22.65;;
25263;SDS011;13211;51.796;5.808;2023-04-24T01:55:53;42.15;;;23.08;;
25263;SDS011;13211;51.796;5.808;2023-04-24T01:58:21;46.53;;;24.52;;
25263;SDS011;13211;51.796;5.808;2023-04-24T02:00:50;42.88;;;24.05;;
25263;SDS011;13211;51.796;5.808;2023-04-24T02:03:17;46.88;;;24.02;;
25263;SDS011;13211;51.796;5.808;2023-04-24T02:05:48;42.35;;;23.75;;
25263;SDS011;13211;51.796;5.808;2023-04-24T02:08:17;42.83;;;24.30;;
25263;SDS011;13211;51.796;5.808;2023-04-24T02:10:45;42.38;;;22.63;;
25263;SDS011;13211;51.796;5.808;2023-04-24T02:13:18;38.67;;;22.95;;
25263;SDS011;13211;51.796;5.808;2023-04-24T02:15:45;38.63;;;21.57;;
25263;SDS011;13211;51.796;5.808;2023-04-24T02:18:15;36.17;;;21.25;;
25263;SDS011;13211;51.796;5.808;2023-04-24T02:20:44;37.90;;;21.60;;
25263;SDS011;13211;51.796;5.808;2023-04-24T02:23:15;32.90;;;21.33;;
25263;SDS011;13211;51.796;5.808;2023-04-24T02:25:44;36.78;;;22.13;;
25263;SDS011;13211;51.796;5.808;2023-04-24T02:28:13;38.35;;;22.00;;
25263;SDS011;13211;51.796;5.808;2023-04-24T02:30:43;41.28;;;22.73;;
25263;SDS011;13211;51.796;5.808;2023-04-24T02:33:15;39.05;;;23.10;;
25263;SDS011;13211;51.796;5.808;2023-04-24T02:35:44;40.65;;;23.67;;
25263;SDS011;13211;51.796;5.808;2023-04-24T02:38:15;43.55;;;24.27;;
25263;SDS011;13211;51.796;5.808;2023-04-24T02:40:50;45.65;;;26.20;;
25263;SDS011;13211;51.796;5.808;2023-04-24T02:43:19;46.78;;;26.67;;
25263;SDS011;13211;51.796;5.808;2023-04-24T02:45:48;45.17;;;27.10;;
25263;SDS011;13211;51.796;5.808;2023-04-24T02:48:25;51.70;;;29.08;;
25263;SDS011;13211;51.796;5.808;2023-04-24T02:50:53;53.00;;;29.27;;
25263;SDS011;13211;51.796;5.808;2023-04-24T02:53:22;53.58;;;31.60;;
25263;SDS011;13211;51.796;5.808;2023-04-24T02:55:50;53.53;;;31.17;;
25263;SDS011;13211;51.796;5.808;2023-04-24T02:58:17;63.53;;;36.03;;
25263;SDS011;13211;51.796;5.808;2023-04-24T03:00:52;70.70;;;37.97;;
25263;SDS011;13211;51.796;5.808;2023-04-24T03:03:23;70.28;;;37.85;;
25263;SDS011;13211;51.796;5.808;2023-04-24T03:05:52;70.40;;;38.33;;
25263;SDS011;13211;51.796;5.808;2023-04-24T03:08:20;67.90;;;38.72;;
25263;SDS011;13211;51.796;5.808;2023-04-24T03:10:49;68.38;;;38.35;;
25263;SDS011;13211;51.796;5.808;2023-04-24T03:13:23;68.78;;;37.35;;
25263;SDS011;13211;51.796;5.808;2023-04-24T03:15:54;68.10;;;38.45;;
25263;SDS011;13211;51.796;5.808;2023-04-24T03:18:22;75.22;;;40.30;;
25263;SDS011;13211;51.796;5.808;2023-04-24T03:20:52;69.03;;;39.60;;
25263;SDS011;13211;51.796;5.808;2023-04-24T03:23:20;76.00;;;38.50;;
25263;SDS011;13211;51.796;5.808;2023-04-24T03:25:51;70.13;;;38.35;;
25263;SDS011;13211;51.796;5.808;2023-04-24T03:28:19;68.80;;;38.42;;
25263;SDS011;13211;51.796;5.808;2023-04-24T03:30:56;72.10;;;38.78;;
25263;SDS011;13211;51.796;5.808;2023-04-24T03:33:28;64.60;;;36.70;;
25263;SDS011;13211;51.796;5.808;2023-04-24T03:36:02;66.22;;;37.15;;
25263;SDS011;13211;51.796;5.808;2023-04-24T03:38:38;68.18;;;35.95;;
25263;SDS011;13211;51.796;5.808;2023-04-24T03:41:21;64.32;;;36.58;;
25263;SDS011;13211;51.796;5.808;2023-04-24T03:43:54;68.25;;;36.08;;
25263;SDS011;13211;51.796;5.808;2023-04-24T03:46:23;66.07;;;35.22;;
25263;SDS011;13211;51.796;5.808;2023-04-24T03:48:56;65.95;;;34.78;;
25263;SDS011;13211;51.796;5.808;2023-04-24T03:51:28;62.70;;;33.88;;
25263;SDS011;13211;51.796;5.808;2023-04-24T03:54:07;61.53;;;33.35;;
25263;SDS011;13211;51.796;5.808;2023-04-24T03:56:38;56.47;;;33.38;;
25263;SDS011;13211;51.796;5.808;2023-04-24T03:59:06;61.38;;;35.55;;
25263;SDS011;13211;51.796;5.808;2023-04-24T04:01:36;59.45;;;33.42;;
25263;SDS011;13211;51.796;5.808;2023-04-24T04:06:38;55.35;;;32.20;;
25263;SDS011;13211;51.796;5.808;2023-04-24T04:09:06;56.17;;;32.40;;
25263;SDS011;13211;51.796;5.808;2023-04-24T04:11:35;63.67;;;32.10;;
25263;SDS011;13211;51.796;5.808;2023-04-24T04:14:04;64.80;;;32.65;;
25263;SDS011;13211;51.796;5.808;2023-04-24T04:16:35;62.33;;;31.92;;
25263;SDS011;13211;51.796;5.808;2023-04-24T04:19:04;57.13;;;31.92;;
25263;SDS011;13211;51.796;5.808;2023-04-24T04:21:33;54.92;;;30.40;;
25263;SDS011;13211;51.796;5.808;2023-04-24T04:24:10;53.97;;;29.92;;
25263;SDS011;13211;51.796;5.808;2023-04-24T04:26:43;55.53;;;29.33;;
25263;SDS011;13211;51.796;5.808;2023-04-24T04:31:51;51.85;;;29.35;;
25263;SDS011;13211;51.796;5.808;2023-04-24T04:34:20;57.92;;;27.90;;
25263;SDS011;13211;51.796;5.808;2023-04-24T04:36:50;58.13;;;27.60;;
25263;SDS011;13211;51.796;5.808;2023-04-24T04:39:36;54.10;;;28.27;;
25263;SDS011;13211;51.796;5.808;2023-04-24T04:42:07;52.00;;;27.48;;
25263;SDS011;13211;51.796;5.808;2023-04-24T04:44:39;45.55;;;25.98;;
25263;SDS011;13211;51.796;5.808;2023-04-24T04:47:11;44.95;;;25.55;;
25263;SDS011;13211;51.796;5.808;2023-04-24T04:49:40;49.47;;;25.35;;
25263;SDS011;13211;51.796;5.808;2023-04-24T04:52:15;49.00;;;25.52;;
25263;SDS011;13211;51.796;5.808;2023-04-24T04:54:52;49.63;;;26.65;;
25263;SDS011;13211;51.796;5.808;2023-04-24T04:57:23;41.28;;;24.90;;
25263;SDS011;13211;51.796;5.808;2023-04-24T04:59:51;44.42;;;24.85;;
25263;SDS011;13211;51.796;5.808;2023-04-24T05:02:33;42.25;;;24.23;;
25263;SDS011;13211;51.796;5.808;2023-04-24T05:05:01;45.22;;;25.58;;
25263;SDS011;13211;51.796;5.808;2023-04-24T05:07:30;47.08;;;24.08;;
25263;SDS011;13211;51.796;5.808;2023-04-24T05:10:02;44.40;;;25.05;;
25263;SDS011;13211;51.796;5.808;2023-04-24T05:12:30;42.80;;;24.42;;
25263;SDS011;13211;51.796;5.808;2023-04-24T05:14:59;41.95;;;24.63;;
25263;SDS011;13211;51.796;5.808;2023-04-24T05:17:28;42.58;;;23.77;;
25263;SDS011;13211;51.796;5.808;2023-04-24T05:19:57;42.33;;;24.20;;
25263;SDS011;13211;51.796;5.808;2023-04-24T05:22:25;39.05;;;23.27;;
25263;SDS011;13211;51.796;5.808;2023-04-24T05:24:56;41.53;;;24.40;;
25263;SDS011;13211;51.796;5.808;2023-04-24T05:27:47;42.58;;;23.25;;
25263;SDS011;13211;51.796;5.808;2023-04-24T05:30:21;43.05;;;22.60;;
25263;SDS011;13211;51.796;5.808;2023-04-24T05:32:50;35.78;;;22.08;;
25263;SDS011;13211;51.796;5.808;2023-04-24T05:35:19;39.90;;;22.05;;
25263;SDS011;13211;51.796;5.808;2023-04-24T05:37:47;35.75;;;20.67;;
25263;SDS011;13211;51.796;5.808;2023-04-24T05:40:17;34.08;;;20.23;;
25263;SDS011;13211;51.796;5.808;2023-04-24T05:42:47;37.72;;;20.67;;
25263;SDS011;13211;51.796;5.808;2023-04-24T05:45:17;35.35;;;19.92;;
25263;SDS011;13211;51.796;5.808;2023-04-24T05:47:47;31.85;;;18.05;;
25263;SDS011;13211;51.796;5.808;2023-04-24T05:50:15;37.42;;;18.88;;
25263;SDS011;13211;51.796;5.808;2023-04-24T05:52:46;29.80;;;17.02;;
25263;SDS011;13211;51.796;5.808;2023-04-24T05:55:24;31.17;;;14.98;;
25263;SDS011;13211;51.796;5.808;2023-04-24T05:57:53;24.10;;;13.32;;
25263;SDS011;13211;51.796;5.808;2023-04-24T06:00:23;23.38;;;12.88;;
25263;SDS011;13211;51.796;5.808;2023-04-24T06:02:59;16.88;;;9.60;;
25263;SDS011;13211;51.796;5.808;2023-04-24T06:05:27;14.20;;;7.60;;
25263;SDS011;13211;51.796;5.808;2023-04-24T06:07:58;9.95;;;6.65;;
25263;SDS011;13211;51.796;5.808;2023-04-24T06:10:32;9.65;;;6.18;;
25263;SDS011;13211;51.796;5.808;2023-04-24T06:13:04;12.15;;;6.70;;
25263;SDS011;13211;51.796;5.808;2023-04-24T06:15:35;9.65;;;5.90;;
25263;SDS011;13211;51.796;5.808;2023-04-24T06:18:10;10.90;;;5.97;;
25263;SDS011;13211;51.796;5.808;2023-04-24T06:20:42;10.45;;;6.28;;
25263;SDS011;13211;51.796;5.808;2023-04-24T06:23:11;9.52;;;5.32;;
25263;SDS011;13211;51.796;5.808;2023-04-24T06:25:39;9.55;;;5.40;;
25263;SDS011;13211;51.796;5.808;2023-04-24T06:28:07;7.82;;;4.78;;
25263;SDS011;13211;51.796;5.808;2023-04-24T06:30:36;8.43;;;4.40;;
25263;SDS011;13211;51.796;5.808;2023-04-24T06:33:11;8.05;;;4.05;;
25263;SDS011;13211;51.796;5.808;2023-04-24T06:35:45;9.00;;;4.30;;
25263;SDS011;13211;51.796;5.808;2023-04-24T06:38:14;10.65;;;4.70;;
25263;SDS011;13211;51.796;5.808;2023-04-24T06:40:45;8.18;;;4.93;;
25263;SDS011;13211;51.796;5.808;2023-04-24T06:43:14;8.32;;;5.22;;
25263;SDS011;13211;51.796;5.808;2023-04-24T06:45:42;10.02;;;5.80;;
25263;SDS011;13211;51.796;5.808;2023-04-24T06:48:10;7.43;;;5.38;;
25263;SDS011;13211;51.796;5.808;2023-04-24T06:50:39;8.20;;;4.32;;
25263;SDS011;13211;51.796;5.808;2023-04-24T06:53:06;5.13;;;3.40;;
25263;SDS011;13211;51.796;5.808;2023-04-24T06:55:38;4.32;;;2.55;;
25263;SDS011;13211;51.796;5.808;2023-04-24T06:58:08;4.55;;;2.00;;
25263;SDS011;13211;51.796;5.808;2023-04-24T07:00:36;5.32;;;1.38;;
25263;SDS011;13211;51.796;5.808;2023-04-24T07:03:04;4.15;;;1.35;;
25263;SDS011;13211;51.796;5.808;2023-04-24T07:05:32;5.38;;;1.55;;
25263;SDS011;13211;51.796;5.808;2023-04-24T07:08:04;1.48;;;0.90;;
25263;SDS011;13211;51.796;5.808;2023-04-24T07:10:33;1.25;;;0.82;;
25263;SDS011;13211;51.796;5.808;2023-04-24T07:13:03;2.10;;;0.90;;
25263;SDS011;13211;51.796;5.808;2023-04-24T07:15:31;2.20;;;0.98;;
25263;SDS011;13211;51.796;5.808;2023-04-24T07:17:59;3.45;;;1.40;;
25263;SDS011;13211;51.796;5.808;2023-04-24T07:20:31;4.30;;;1.23;;
25263;SDS011;13211;51.796;5.808;2023-04-24T07:23:03;2.17;;;1.15;;
25263;SDS011;13211;51.796;5.808;2023-04-24T07:25:31;5.22;;;1.50;;
25263;SDS011;13211;51.796;5.808;2023-04-24T07:28:00;4.63;;;2.00;;
25263;SDS011;13211;51.796;5.808;2023-04-24T07:30:30;6.03;;;2.20;;
25263;SDS011;13211;51.796;5.808;2023-04-24T07:32:59;5.10;;;2.20;;
25263;SDS011;13211;51.796;5.808;2023-04-24T07:35:29;6.60;;;2.25;;
25263;SDS011;13211;51.796;5.808;2023-04-24T07:37:57;4.00;;;2.70;;
25263;SDS011;13211;51.796;5.808;2023-04-24T07:40:26;6.15;;;2.97;;
25263;SDS011;13211;51.796;5.808;2023-04-24T07:42:54;7.10;;;4.20;;
25263;SDS011;13211;51.796;5.808;2023-04-24T07:45:23;9.23;;;4.93;;
25263;SDS011;13211;51.796;5.808;2023-04-24T07:47:54;13.40;;;7.03;;
25263;SDS011;13211;51.796;5.808;2023-04-24T07:50:24;16.75;;;9.60;;
25263;SDS011;13211;51.796;5.808;2023-04-24T07:52:52;21.42;;;11.23;;
25263;SDS011;13211;51.796;5.808;2023-04-24T07:55:22;21.08;;;12.20;;
25263;SDS011;13211;51.796;5.808;2023-04-24T07:57:55;24.17;;;12.85;;
25263;SDS011;13211;51.796;5.808;2023-04-24T08:00:24;25.08;;;13.77;;
25263;SDS011;13211;51.796;5.808;2023-04-24T08:02:56;23.00;;;12.98;;
25263;SDS011;13211;51.796;5.808;2023-04-24T08:05:24;29.85;;;14.40;;
25263;SDS011;13211;51.796;5.808;2023-04-24T08:07:55;30.25;;;13.77;;
25263;SDS011;13211;51.796;5.808;2023-04-24T08:10:29;31.52;;;14.20;;
25263;SDS011;13211;51.796;5.808;2023-04-24T08:12:58;25.80;;;14.60;;
25263;SDS011;13211;51.796;5.808;2023-04-24T08:15:30;25.48;;;13.95;;
25263;SDS011;13211;51.796;5.808;2023-04-24T08:17:59;27.55;;;13.75;;
25263;SDS011;13211;51.796;5.808;2023-04-24T08:20:27;29.90;;;14.57;;
25263;SDS011;13211;51.796;5.808;2023-04-24T08:22:56;30.15;;;14.13;;
25263;SDS011;13211;51.796;5.808;2023-04-24T08:25:23;26.50;;;14.57;;
25263;SDS011;13211;51.796;5.808;2023-04-24T08:27:51;23.05;;;13.80;;
25263;SDS011;13211;51.796;5.808;2023-04-24T08:30:20;22.33;;;12.88;;
25263;SDS011;13211;51.796;5.808;2023-04-24T08:32:48;26.42;;;12.35;;
25263;SDS011;13211;51.796;5.808;2023-04-24T08:35:22;23.40;;;13.07;;
25263;SDS011;13211;51.796;5.808;2023-04-24T08:37:52;24.02;;;12.20;;
25263;SDS011;13211;51.796;5.808;2023-04-24T08:40:27;22.50;;;11.23;;
25263;SDS011;13211;51.796;5.808;2023-04-24T08:42:58;29.17;;;11.98;;
25263;SDS011;13211;51.796;5.808;2023-04-24T08:45:29;25.40;;;10.95;;
25263;SDS011;13211;51.796;5.808;2023-04-24T08:47:58;36.63;;;11.32;;
25263;SDS011;13211;51.796;5.808;2023-04-24T08:50:26;27.67;;;10.45;;
25263;SDS011;13211;51.796;5.808;2023-04-24T08:52:55;36.95;;;10.23;;
25263;SDS011;13211;51.796;5.808;2023-04-24T08:55:23;42.55;;;10.40;;
25263;SDS011;13211;51.796;5.808;2023-04-24T08:57:53;28.80;;;8.15;;
25263;SDS011;13211;51.796;5.808;2023-04-24T09:00:21;33.65;;;7.88;;
25263;SDS011;13211;51.796;5.808;2023-04-24T09:02:52;32.40;;;7.93;;
25263;SDS011;13211;51.796;5.808;2023-04-24T09:05:24;32.75;;;6.35;;
25263;SDS011;13211;51.796;5.808;2023-04-24T09:08:03;41.13;;;6.97;;
25263;SDS011;13211;51.796;5.808;2023-04-24T09:10:32;25.42;;;7.20;;
25263;SDS011;13211;51.796;5.808;2023-04-24T09:13:05;33.63;;;6.50;;
25263;SDS011;13211;51.796;5.808;2023-04-24T09:15:40;28.52;;;6.47;;
25263;SDS011;13211;51.796;5.808;2023-04-24T09:18:08;37.50;;;6.72;;
25263;SDS011;13211;51.796;5.808;2023-04-24T09:23:27;36.22;;;5.80;;
25263;SDS011;13211;51.796;5.808;2023-04-24T09:25:56;30.60;;;5.85;;
25263;SDS011;13211;51.796;5.808;2023-04-24T09:28:36;31.80;;;5.50;;
25263;SDS011;13211;51.796;5.808;2023-04-24T09:31:12;24.67;;;4.70;;
25263;SDS011;13211;51.796;5.808;2023-04-24T09:33:55;28.85;;;5.25;;
25263;SDS011;13211;51.796;5.808;2023-04-24T09:36:28;23.90;;;4.40;;
25263;SDS011;13211;51.796;5.808;2023-04-24T09:39:01;27.40;;;4.35;;
25263;SDS011;13211;51.796;5.808;2023-04-24T09:41:29;25.45;;;4.25;;
25263;SDS011;13211;51.796;5.808;2023-04-24T09:44:10;30.08;;;5.03;;
25263;SDS011;13211;51.796;5.808;2023-04-24T09:46:38;17.25;;;3.97;;
25263;SDS011;13211;51.796;5.808;2023-04-24T09:49:13;21.40;;;4.38;;
25263;SDS011;13211;51.796;5.808;2023-04-24T09:51:44;16.95;;;3.38;;
25263;SDS011;13211;51.796;5.808;2023-04-24T09:54:14;18.25;;;3.38;;
25263;SDS011;13211;51.796;5.808;2023-04-24T09:56:47;20.10;;;3.30;;
25263;SDS011;13211;51.796;5.808;2023-04-24T09:59:18;12.23;;;3.50;;
25263;SDS011;13211;51.796;5.808;2023-04-24T10:01:46;18.00;;;3.42;;
25263;SDS011;13211;51.796;5.808;2023-04-24T10:04:22;24.83;;;3.80;;
25263;SDS011;13211;51.796;5.808;2023-04-24T10:06:51;22.13;;;3.67;;
25263;SDS011;13211;51.796;5.808;2023-04-24T10:09:22;18.05;;;4.05;;
25263;SDS011;13211;51.796;5.808;2023-04-24T10:11:51;17.58;;;3.65;;
25263;SDS011;13211;51.796;5.808;2023-04-24T10:14:21;16.08;;;3.53;;
25263;SDS011;13211;51.796;5.808;2023-04-24T10:16:54;13.90;;;2.78;;
25263;SDS011;13211;51.796;5.808;2023-04-24T10:19:25;21.02;;;2.95;;
25263;SDS011;13211;51.796;5.808;2023-04-24T10:21:54;10.52;;;3.20;;
25263;SDS011;13211;51.796;5.808;2023-04-24T10:24:23;14.65;;;3.63;;
25263;SDS011;13211;51.796;5.808;2023-04-24T10:26:52;14.25;;;2.83;;
25263;SDS011;13211;51.796;5.808;2023-04-24T10:29:20;17.98;;;4.13;;
25263;SDS011;13211;51.796;5.808;2023-04-24T10:31:48;12.52;;;2.60;;
25263;SDS011;13211;51.796;5.808;2023-04-24T10:34:19;13.98;;;2.78;;
25263;SDS011;13211;51.796;5.808;2023-04-24T10:36:50;14.82;;;3.28;;
25263;SDS011;13211;51.796;5.808;2023-04-24T10:39:22;13.43;;;3.00;;
25263;SDS011;13211;51.796;5.808;2023-04-24T10:41:54;15.93;;;2.85;;
25263;SDS011;13211;51.796;5.808;2023-04-24T10:44:27;10.13;;;2.30;;
25263;SDS011;13211;51.796;5.808;2023-04-24T10:47:03;11.27;;;2.50;;
25263;SDS011;13211;51.796;5.808;2023-04-24T10:49:31;12.85;;;3.05;;
25263;SDS011;13211;51.796;5.808;2023-04-24T10:52:03;12.60;;;2.30;;
25263;SDS011;13211;51.796;5.808;2023-04-24T10:57:28;13.05;;;2.05;;
25263;SDS011;13211;51.796;5.808;2023-04-24T11:00:12;14.45;;;2.63;;
25263;SDS011;13211;51.796;5.808;2023-04-24T11:02:42;8.65;;;2.15;;
25263;SDS011;13211;51.796;5.808;2023-04-24T11:05:21;15.73;;;1.92;;
25263;SDS011;13211;51.796;5.808;2023-04-24T11:10:38;11.23;;;1.55;;
25263;SDS011;13211;51.796;5.808;2023-04-24T11:13:06;8.82;;;1.73;;
25263;SDS011;13211;51.796;5.808;2023-04-24T11:15:37;8.73;;;1.75;;
25263;SDS011;13211;51.796;5.808;2023-04-24T11:18:05;11.07;;;1.52;;
25263;SDS011;13211;51.796;5.808;2023-04-24T11:20:33;7.13;;;1.50;;
25263;SDS011;13211;51.796;5.808;2023-04-24T11:23:03;4.13;;;1.30;;
25263;SDS011;13211;51.796;5.808;2023-04-24T11:25:33;8.65;;;1.50;;
25263;SDS011;13211;51.796;5.808;2023-04-24T11:28:04;12.80;;;1.45;;
25263;SDS011;13211;51.796;5.808;2023-04-24T11:30:33;3.08;;;1.23;;
25263;SDS011;13211;51.796;5.808;2023-04-24T11:33:03;11.77;;;1.40;;
25263;SDS011;13211;51.796;5.808;2023-04-24T11:35:35;12.60;;;1.40;;
25263;SDS011;13211;51.796;5.808;2023-04-24T11:38:07;15.68;;;1.88;;
25263;SDS011;13211;51.796;5.808;2023-04-24T11:40:51;11.68;;;1.55;;
25263;SDS011;13211;51.796;5.808;2023-04-24T11:43:20;13.93;;;1.88;;
25263;SDS011;13211;51.796;5.808;2023-04-24T11:45:49;9.32;;;1.48;;
25263;SDS011;13211;51.796;5.808;2023-04-24T11:48:25;8.52;;;1.45;;
25263;SDS011;13211;51.796;5.808;2023-04-24T11:50:57;7.28;;;1.52;;
25263;SDS011;13211;51.796;5.808;2023-04-24T11:53:26;8.27;;;1.75;;
25263;SDS011;13211;51.796;5.808;2023-04-24T11:55:57;10.77;;;1.70;;
25263;SDS011;13211;51.796;5.808;2023-04-24T11:58:39;8.60;;;2.17;;
25263;SDS011;13211;51.796;5.808;2023-04-24T12:01:07;7.97;;;1.45;;
25263;SDS011;13211;51.796;5.808;2023-04-24T12:03:35;10.98;;;2.17;;
25263;SDS011;13211;51.796;5.808;2023-04-24T12:06:07;7.88;;;1.50;;
25263;SDS011;13211;51.796;5.808;2023-04-24T12:08:36;14.32;;;1.83;;
25263;SDS011;13211;51.796;5.808;2023-04-24T12:11:07;6.05;;;1.10;;
25263;SDS011;13211;51.796;5.808;2023-04-24T12:13:35;4.78;;;1.67;;
25263;SDS011;13211;51.796;5.808;2023-04-24T12:16:04;8.32;;;1.30;;
25263;SDS011;13211;51.796;5.808;2023-04-24T12:18:32;6.28;;;1.90;;
25263;SDS011;13211;51.796;5.808;2023-04-24T12:21:16;10.93;;;1.15;;
25263;SDS011;13211;51.796;5.808;2023-04-24T12:23:48;4.30;;;1.13;;
25263;SDS011;13211;51.796;5.808;2023-04-24T12:28:48;13.10;;;2.35;;
25263;SDS011;13211;51.796;5.808;2023-04-24T12:31:17;6.82;;;0.98;;
25263;SDS011;13211;51.796;5.808;2023-04-24T12:33:48;8.93;;;1.50;;
25263;SDS011;13211;51.796;5.808;2023-04-24T12:36:16;6.30;;;1.38;;
25263;SDS011;13211;51.796;5.808;2023-04-24T12:38:45;8.48;;;1.58;;
25263;SDS011;13211;51.796;5.808;2023-04-24T12:41:14;8.02;;;1.65;;
25263;SDS011;13211;51.796;5.808;2023-04-24T12:43:52;10.02;;;1.70;;
25263;SDS011;13211;51.796;5.808;2023-04-24T12:46:21;7.80;;;1.83;;
25263;SDS011;13211;51.796;5.808;2023-04-24T12:48:49;4.90;;;1.67;;
25263;SDS011;13211;51.796;5.808;2023-04-24T12:51:17;10.85;;;2.05;;
25263;SDS011;13211;51.796;5.808;2023-04-24T12:53:45;9.52;;;2.13;;
25263;SDS011;13211;51.796;5.808;2023-04-24T12:56:13;9.00;;;1.88;;
25263;SDS011;13211;51.796;5.808;2023-04-24T13:01:13;7.95;;;1.45;;
25263;SDS011;13211;51.796;5.808;2023-04-24T13:03:42;5.00;;;1.35;;
25263;SDS011;13211;51.796;5.808;2023-04-24T13:06:11;9.02;;;1.50;;
25263;SDS011;13211;51.796;5.808;2023-04-24T13:08:38;4.13;;;1.20;;
25263;SDS011;13211;51.796;5.808;2023-04-24T13:11:06;10.95;;;1.48;;
25263;SDS011;13211;51.796;5.808;2023-04-24T13:13:34;8.20;;;1.75;;
25263;SDS011;13211;51.796;5.808;2023-04-24T13:16:02;6.68;;;1.48;;
25263;SDS011;13211;51.796;5.808;2023-04-24T13:18:30;5.32;;;1.45;;
25263;SDS011;13211;51.796;5.808;2023-04-24T13:20:58;6.50;;;1.60;;
25263;SDS011;13211;51.796;5.808;2023-04-24T13:23:26;6.65;;;1.73;;
25263;SDS011;13211;51.796;5.808;2023-04-24T13:25:54;9.32;;;1.58;;
25263;SDS011;13211;51.796;5.808;2023-04-24T13:30:53;8.80;;;1.58;;
25263;SDS011;13211;51.796;5.808;2023-04-24T13:33:25;6.57;;;1.30;;
25263;SDS011;13211;51.796;5.808;2023-04-24T13:35:53;7.65;;;1.30;;
25263;SDS011;13211;51.796;5.808;2023-04-24T13:38:21;10.70;;;1.60;;
25263;SDS011;13211;51.796;5.808;2023-04-24T13:40:49;9.15;;;1.40;;
25263;SDS011;13211;51.796;5.808;2023-04-24T13:43:19;11.50;;;1.85;;
25263;SDS011;13211;51.796;5.808;2023-04-24T13:45:48;8.07;;;2.53;;
25263;SDS011;13211;51.796;5.808;2023-04-24T13:48:15;8.85;;;2.15;;
25263;SDS011;13211;51.796;5.808;2023-04-24T13:50:44;6.93;;;1.52;;
25263;SDS011;13211;51.796;5.808;2023-04-24T13:53:17;6.85;;;1.73;;
25263;SDS011;13211;51.796;5.808;2023-04-24T13:55:49;11.27;;;2.35;;
25263;SDS011;13211;51.796;5.808;2023-04-24T13:58:19;15.13;;;2.25;;
25263;SDS011;13211;51.796;5.808;2023-04-24T14:03:15;6.50;;;1.70;;
25263;SDS011;13211;51.796;5.808;2023-04-24T14:05:44;11.45;;;1.90;;
25263;SDS011;13211;51.796;5.808;2023-04-24T14:08:13;7.78;;;2.08;;
25263;SDS011;13211;51.796;5.808;2023-04-24T14:10:45;13.93;;;2.10;;
25263;SDS011;13211;51.796;5.808;2023-04-24T14:13:19;9.98;;;2.10;;
25263;SDS011;13211;51.796;5.808;2023-04-24T14:15:48;6.18;;;1.42;;
25263;SDS011;13211;51.796;5.808;2023-04-24T14:18:20;9.38;;;1.70;;
25263;SDS011;13211;51.796;5.808;2023-04-24T14:20:48;9.65;;;1.60;;
25263;SDS011;13211;51.796;5.808;2023-04-24T14:23:18;9.18;;;1.80;;
25263;SDS011;13211;51.796;5.808;2023-04-24T14:25:48;11.23;;;1.90;;
25263;SDS011;13211;51.796;5.808;2023-04-24T14:28:19;14.77;;;1.90;;
25263;SDS011;13211;51.796;5.808;2023-04-24T14:30:48;8.40;;;1.92;;
25263;SDS011;13211;51.796;5.808;2023-04-24T14:33:18;14.93;;;2.35;;
25263;SDS011;13211;51.796;5.808;2023-04-24T14:35:46;9.00;;;2.10;;
25263;SDS011;13211;51.796;5.808;2023-04-24T14:38:14;13.68;;;2.55;;
25263;SDS011;13211;51.796;5.808;2023-04-24T14:40:45;20.33;;;3.15;;
25263;SDS011;13211;51.796;5.808;2023-04-24T14:43:17;13.27;;;2.72;;
25263;SDS011;13211;51.796;5.808;2023-04-24T14:45:45;12.18;;;2.88;;
25263;SDS011;13211;51.796;5.808;2023-04-24T14:48:16;19.58;;;2.97;;
25263;SDS011;13211;51.796;5.808;2023-04-24T14:50:45;14.13;;;3.28;;
25263;SDS011;13211;51.796;5.808;2023-04-24T14:53:19;14.77;;;3.42;;
25263;SDS011;13211;51.796;5.808;2023-04-24T14:55:48;17.52;;;3.15;;
25263;SDS011;13211;51.796;5.808;2023-04-24T14:58:17;15.18;;;3.05;;
25263;SDS011;13211;51.796;5.808;2023-04-24T15:00:46;10.85;;;3.03;;
25263;SDS011;13211;51.796;5.808;2023-04-24T15:03:21;17.17;;;4.03;;
25263;SDS011;13211;51.796;5.808;2023-04-24T15:05:50;21.02;;;3.58;;
25263;SDS011;13211;51.796;5.808;2023-04-24T15:08:19;12.45;;;2.45;;
25263;SDS011;13211;51.796;5.808;2023-04-24T15:10:48;7.90;;;2.30;;
25263;SDS011;13211;51.796;5.808;2023-04-24T15:13:21;8.48;;;2.28;;
25263;SDS011;13211;51.796;5.808;2023-04-24T15:15:49;8.27;;;2.38;;
25263;SDS011;13211;51.796;5.808;2023-04-24T15:18:17;12.02;;;2.25;;